sensor_id;sensor_type;location;lat;lon;timestamp;P1;durP1;ratioP1;P2;durP2;ratioP2
64597;SDS011;51004;54.692;9.332;2023-04-30T00:01:09;10.98;;;3.22;;
64597;SDS011;51004;54.692;9.332;2023-04-30T00:03:35;11.85;;;3.03;;
64597;SDS011;51004;54.692;9.332;2023-04-30T00:06:01;6.97;;;3.17;;
64597;SDS011;51004;54.692;9.332;2023-04-30T00:08:27;7.65;;;2.72;;
64597;SDS011;51004;54.692;9.332;2023-04-30T00:10:54;10.27;;;2.67;;
64597;SDS011;51004;54.692;9.332;2023-04-30T00:13:20;9.18;;;2.92;;
64597;SDS011;51004;54.692;9.332;2023-04-30T00:15:46;8.70;;;2.95;;
64597;SDS011;51004;54.692;9.332;2023-04-30T00:18:12;8.40;;;3.53;;
64597;SDS011;51004;54.692;9.332;2023-04-30T00:20:37;11.02;;;3.40;;
64597;SDS011;51004;54.692;9.332;2023-04-30T00:23:03;6.28;;;3.10;;
64597;SDS011;51004;54.692;9.332;2023-04-30T00:25:29;10.25;;;3.13;;
64597;SDS011;51004;54.692;9.332;2023-04-30T00:27:55;13.07;;;3.40;;
64597;SDS011;51004;54.692;9.332;2023-04-30T00:30:21;10.90;;;3.72;;
64597;SDS011;51004;54.692;9.332;2023-04-30T00:32:47;10.00;;;2.83;;
64597;SDS011;51004;54.692;9.332;2023-04-30T00:35:14;6.05;;;2.65;;
64597;SDS011;51004;54.692;9.332;2023-04-30T00:37:40;13.07;;;3.13;;
64597;SDS011;51004;54.692;9.332;2023-04-30T00:40:06;13.55;;;3.38;;
64597;SDS011;51004;54.692;9.332;2023-04-30T00:42:32;10.05;;;3.33;;
64597;SDS011;51004;54.692;9.332;2023-04-30T00:44:58;8.63;;;3.30;;
64597;SDS011;51004;54.692;9.332;2023-04-30T00:47:24;11.05;;;3.15;;
64597;SDS011;51004;54.692;9.332;2023-04-30T00:49:50;9.23;;;3.33;;
64597;SDS011;51004;54.692;9.332;2023-04-30T00:52:16;10.95;;;3.00;;
64597;SDS011;51004;54.692;9.332;2023-04-30T00:54:45;13.57;;;3.20;;
64597;SDS011;51004;54.692;9.332;2023-04-30T00:57:11;9.05;;;3.65;;
64597;SDS011;51004;54.692;9.332;2023-04-30T00:59:37;12.30;;;3.42;;
64597;SDS011;51004;54.692;9.332;2023-04-30T01:02:04;9.40;;;3.05;;
64597;SDS011;51004;54.692;9.332;2023-04-30T01:04:30;9.77;;;2.85;;
64597;SDS011;51004;54.692;9.332;2023-04-30T01:06:57;8.77;;;3.30;;
64597;SDS011;51004;54.692;9.332;2023-04-30T01:09:24;10.48;;;3.50;;
64597;SDS011;51004;54.692;9.332;2023-04-30T01:14:24;11.57;;;4.00;;
64597;SDS011;51004;54.692;9.332;2023-04-30T01:17:04;7.22;;;3.30;;
64597;SDS011;51004;54.692;9.332;2023-04-30T01:19:35;13.68;;;4.85;;
64597;SDS011;51004;54.692;9.332;2023-04-30T01:22:03;11.43;;;3.40;;
64597;SDS011;51004;54.692;9.332;2023-04-30T01:24:39;9.65;;;3.10;;
64597;SDS011;51004;54.692;9.332;2023-04-30T01:29:35;11.70;;;3.72;;
64597;SDS011;51004;54.692;9.332;2023-04-30T01:32:01;9.23;;;4.22;;
64597;SDS011;51004;54.692;9.332;2023-04-30T01:34:27;12.40;;;3.70;;
64597;SDS011;51004;54.692;9.332;2023-04-30T01:39:32;9.45;;;3.85;;
64597;SDS011;51004;54.692;9.332;2023-04-30T01:47:26;8.80;;;3.40;;
64597;SDS011;51004;54.692;9.332;2023-04-30T01:52:28;14.13;;;3.75;;
64597;SDS011;51004;54.692;9.332;2023-04-30T01:55:00;13.95;;;4.00;;
64597;SDS011;51004;54.692;9.332;2023-04-30T01:57:37;9.10;;;3.95;;
64597;SDS011;51004;54.692;9.332;2023-04-30T02:00:03;10.48;;;3.60;;
64597;SDS011;51004;54.692;9.332;2023-04-30T02:02:30;11.05;;;3.70;;
64597;SDS011;51004;54.692;9.332;2023-04-30T02:04:56;7.47;;;3.35;;
64597;SDS011;51004;54.692;9.332;2023-04-30T02:07:35;9.95;;;3.47;;
64597;SDS011;51004;54.692;9.332;2023-04-30T02:10:02;11.52;;;4.90;;
64597;SDS011;51004;54.692;9.332;2023-04-30T02:12:28;10.90;;;3.75;;
64597;SDS011;51004;54.692;9.332;2023-04-30T02:14:54;14.10;;;4.13;;
64597;SDS011;51004;54.692;9.332;2023-04-30T02:17:20;11.18;;;3.40;;
64597;SDS011;51004;54.692;9.332;2023-04-30T02:19:46;9.10;;;3.58;;
64597;SDS011;51004;54.692;9.332;2023-04-30T02:22:12;9.98;;;3.55;;
64597;SDS011;51004;54.692;9.332;2023-04-30T02:24:38;13.45;;;4.43;;
64597;SDS011;51004;54.692;9.332;2023-04-30T02:27:04;9.07;;;3.60;;
64597;SDS011;51004;54.692;9.332;2023-04-30T02:29:30;13.77;;;4.10;;
64597;SDS011;51004;54.692;9.332;2023-04-30T02:31:57;9.13;;;3.47;;
64597;SDS011;51004;54.692;9.332;2023-04-30T02:34:23;7.72;;;3.25;;
64597;SDS011;51004;54.692;9.332;2023-04-30T02:36:49;10.00;;;3.42;;
64597;SDS011;51004;54.692;9.332;2023-04-30T02:39:15;10.55;;;3.47;;
64597;SDS011;51004;54.692;9.332;2023-04-30T02:41:41;8.88;;;3.85;;
64597;SDS011;51004;54.692;9.332;2023-04-30T02:44:07;9.40;;;4.13;;
64597;SDS011;51004;54.692;9.332;2023-04-30T02:46:33;7.18;;;3.42;;
64597;SDS011;51004;54.692;9.332;2023-04-30T02:48:59;12.10;;;4.38;;
64597;SDS011;51004;54.692;9.332;2023-04-30T02:51:25;11.65;;;4.45;;
64597;SDS011;51004;54.692;9.332;2023-04-30T02:53:52;8.82;;;3.55;;
64597;SDS011;51004;54.692;9.332;2023-04-30T02:56:18;11.95;;;4.20;;
64597;SDS011;51004;54.692;9.332;2023-04-30T02:58:44;11.27;;;3.92;;
64597;SDS011;51004;54.692;9.332;2023-04-30T03:01:10;12.07;;;3.90;;
64597;SDS011;51004;54.692;9.332;2023-04-30T03:03:36;11.80;;;4.53;;
64597;SDS011;51004;54.692;9.332;2023-04-30T03:06:02;16.83;;;4.82;;
64597;SDS011;51004;54.692;9.332;2023-04-30T03:08:28;9.07;;;4.43;;
64597;SDS011;51004;54.692;9.332;2023-04-30T03:10:54;8.65;;;3.67;;
64597;SDS011;51004;54.692;9.332;2023-04-30T03:13:20;11.40;;;4.72;;
64597;SDS011;51004;54.692;9.332;2023-04-30T03:15:46;11.77;;;3.60;;
64597;SDS011;51004;54.692;9.332;2023-04-30T03:18:12;11.70;;;3.50;;
64597;SDS011;51004;54.692;9.332;2023-04-30T03:20:38;10.82;;;4.68;;
64597;SDS011;51004;54.692;9.332;2023-04-30T03:23:04;12.52;;;4.00;;
64597;SDS011;51004;54.692;9.332;2023-04-30T03:25:30;9.55;;;4.57;;
64597;SDS011;51004;54.692;9.332;2023-04-30T03:27:57;10.32;;;3.75;;
64597;SDS011;51004;54.692;9.332;2023-04-30T03:30:23;11.38;;;4.35;;
64597;SDS011;51004;54.692;9.332;2023-04-30T03:32:49;7.80;;;3.80;;
64597;SDS011;51004;54.692;9.332;2023-04-30T03:35:14;10.68;;;4.35;;
64597;SDS011;51004;54.692;9.332;2023-04-30T03:37:41;7.63;;;3.60;;
64597;SDS011;51004;54.692;9.332;2023-04-30T03:40:07;11.52;;;4.82;;
64597;SDS011;51004;54.692;9.332;2023-04-30T03:42:33;7.90;;;3.90;;
64597;SDS011;51004;54.692;9.332;2023-04-30T03:44:59;10.00;;;3.90;;
64597;SDS011;51004;54.692;9.332;2023-04-30T03:47:25;11.73;;;4.28;;
64597;SDS011;51004;54.692;9.332;2023-04-30T03:49:51;7.82;;;4.07;;
64597;SDS011;51004;54.692;9.332;2023-04-30T03:52:19;8.77;;;3.97;;
64597;SDS011;51004;54.692;9.332;2023-04-30T03:54:45;11.27;;;4.55;;
64597;SDS011;51004;54.692;9.332;2023-04-30T03:57:11;9.70;;;4.55;;
64597;SDS011;51004;54.692;9.332;2023-04-30T03:59:37;12.88;;;4.72;;
64597;SDS011;51004;54.692;9.332;2023-04-30T04:02:04;8.48;;;3.95;;
64597;SDS011;51004;54.692;9.332;2023-04-30T04:04:30;11.95;;;4.18;;
64597;SDS011;51004;54.692;9.332;2023-04-30T04:06:56;9.18;;;4.07;;
64597;SDS011;51004;54.692;9.332;2023-04-30T04:09:22;8.32;;;4.35;;
64597;SDS011;51004;54.692;9.332;2023-04-30T04:11:48;10.43;;;4.20;;
64597;SDS011;51004;54.692;9.332;2023-04-30T04:14:14;11.40;;;4.43;;
64597;SDS011;51004;54.692;9.332;2023-04-30T04:16:40;10.38;;;4.45;;
64597;SDS011;51004;54.692;9.332;2023-04-30T04:19:06;9.70;;;4.82;;
64597;SDS011;51004;54.692;9.332;2023-04-30T04:21:32;7.85;;;3.95;;
64597;SDS011;51004;54.692;9.332;2023-04-30T04:23:58;15.15;;;4.70;;
64597;SDS011;51004;54.692;9.332;2023-04-30T04:26:32;10.77;;;4.22;;
64597;SDS011;51004;54.692;9.332;2023-04-30T04:28:58;8.90;;;4.22;;
64597;SDS011;51004;54.692;9.332;2023-04-30T04:31:23;9.65;;;3.92;;
64597;SDS011;51004;54.692;9.332;2023-04-30T04:33:50;9.23;;;3.78;;
64597;SDS011;51004;54.692;9.332;2023-04-30T04:36:22;13.68;;;4.05;;
64597;SDS011;51004;54.692;9.332;2023-04-30T04:38:48;10.15;;;5.55;;
64597;SDS011;51004;54.692;9.332;2023-04-30T04:41:13;9.43;;;3.80;;
64597;SDS011;51004;54.692;9.332;2023-04-30T04:43:40;8.77;;;4.43;;
64597;SDS011;51004;54.692;9.332;2023-04-30T04:46:06;9.48;;;4.10;;
64597;SDS011;51004;54.692;9.332;2023-04-30T04:48:33;9.10;;;3.63;;
64597;SDS011;51004;54.692;9.332;2023-04-30T04:50:59;10.10;;;4.25;;
64597;SDS011;51004;54.692;9.332;2023-04-30T04:53:25;9.27;;;3.55;;
64597;SDS011;51004;54.692;9.332;2023-04-30T04:55:51;10.85;;;3.85;;
64597;SDS011;51004;54.692;9.332;2023-04-30T04:58:16;7.18;;;3.45;;
64597;SDS011;51004;54.692;9.332;2023-04-30T05:00:43;10.00;;;3.33;;
64597;SDS011;51004;54.692;9.332;2023-04-30T05:03:09;7.95;;;3.53;;
64597;SDS011;51004;54.692;9.332;2023-04-30T05:05:35;9.93;;;3.30;;
64597;SDS011;51004;54.692;9.332;2023-04-30T05:08:01;10.85;;;3.25;;
64597;SDS011;51004;54.692;9.332;2023-04-30T05:10:27;6.03;;;3.00;;
64597;SDS011;51004;54.692;9.332;2023-04-30T05:12:53;9.98;;;3.20;;
64597;SDS011;51004;54.692;9.332;2023-04-30T05:15:19;9.13;;;3.08;;
64597;SDS011;51004;54.692;9.332;2023-04-30T05:17:45;10.20;;;3.30;;
64597;SDS011;51004;54.692;9.332;2023-04-30T05:20:11;9.70;;;2.97;;
64597;SDS011;51004;54.692;9.332;2023-04-30T05:22:37;10.32;;;3.40;;
64597;SDS011;51004;54.692;9.332;2023-04-30T05:25:03;8.00;;;3.03;;
64597;SDS011;51004;54.692;9.332;2023-04-30T05:27:30;14.60;;;3.35;;
64597;SDS011;51004;54.692;9.332;2023-04-30T05:29:55;6.38;;;2.85;;
64597;SDS011;51004;54.692;9.332;2023-04-30T05:32:21;8.45;;;2.92;;
64597;SDS011;51004;54.692;9.332;2023-04-30T05:34:47;10.57;;;3.30;;
64597;SDS011;51004;54.692;9.332;2023-04-30T05:37:14;8.80;;;2.72;;
64597;SDS011;51004;54.692;9.332;2023-04-30T05:39:41;21.50;;;3.13;;
64597;SDS011;51004;54.692;9.332;2023-04-30T05:42:07;8.40;;;2.85;;
64597;SDS011;51004;54.692;9.332;2023-04-30T05:44:33;6.75;;;2.90;;
64597;SDS011;51004;54.692;9.332;2023-04-30T05:46:59;8.40;;;2.75;;
64597;SDS011;51004;54.692;9.332;2023-04-30T05:49:26;9.55;;;3.42;;
64597;SDS011;51004;54.692;9.332;2023-04-30T05:51:52;13.75;;;2.97;;
64597;SDS011;51004;54.692;9.332;2023-04-30T05:54:17;14.80;;;3.75;;
64597;SDS011;51004;54.692;9.332;2023-04-30T05:56:43;8.68;;;3.38;;
64597;SDS011;51004;54.692;9.332;2023-04-30T05:59:10;12.02;;;3.03;;
64597;SDS011;51004;54.692;9.332;2023-04-30T06:01:36;9.57;;;3.03;;
64597;SDS011;51004;54.692;9.332;2023-04-30T06:04:02;5.18;;;2.70;;
64597;SDS011;51004;54.692;9.332;2023-04-30T06:06:29;11.05;;;2.92;;
64597;SDS011;51004;54.692;9.332;2023-04-30T06:08:55;13.10;;;2.90;;
64597;SDS011;51004;54.692;9.332;2023-04-30T06:11:21;10.82;;;3.20;;
64597;SDS011;51004;54.692;9.332;2023-04-30T06:13:49;11.25;;;3.17;;
64597;SDS011;51004;54.692;9.332;2023-04-30T06:16:15;10.07;;;3.83;;
64597;SDS011;51004;54.692;9.332;2023-04-30T06:18:41;9.75;;;3.20;;
64597;SDS011;51004;54.692;9.332;2023-04-30T06:21:08;12.88;;;3.38;;
64597;SDS011;51004;54.692;9.332;2023-04-30T06:23:34;6.68;;;2.78;;
64597;SDS011;51004;54.692;9.332;2023-04-30T06:26:01;9.93;;;3.15;;
64597;SDS011;51004;54.692;9.332;2023-04-30T06:28:27;8.27;;;2.78;;
64597;SDS011;51004;54.692;9.332;2023-04-30T06:30:53;8.45;;;2.92;;
64597;SDS011;51004;54.692;9.332;2023-04-30T06:33:19;9.55;;;3.40;;
64597;SDS011;51004;54.692;9.332;2023-04-30T06:35:45;8.27;;;3.08;;
64597;SDS011;51004;54.692;9.332;2023-04-30T06:38:12;7.30;;;2.80;;
64597;SDS011;51004;54.692;9.332;2023-04-30T06:40:37;11.43;;;2.88;;
64597;SDS011;51004;54.692;9.332;2023-04-30T06:43:04;8.13;;;2.30;;
64597;SDS011;51004;54.692;9.332;2023-04-30T06:45:30;5.93;;;2.28;;
64597;SDS011;51004;54.692;9.332;2023-04-30T06:47:56;7.40;;;2.50;;
64597;SDS011;51004;54.692;9.332;2023-04-30T06:50:23;9.20;;;2.15;;
64597;SDS011;51004;54.692;9.332;2023-04-30T06:52:50;8.73;;;2.08;;
64597;SDS011;51004;54.692;9.332;2023-04-30T06:55:16;4.25;;;2.08;;
64597;SDS011;51004;54.692;9.332;2023-04-30T06:57:42;6.70;;;2.08;;
64597;SDS011;51004;54.692;9.332;2023-04-30T07:00:08;7.55;;;2.13;;
64597;SDS011;51004;54.692;9.332;2023-04-30T07:02:34;6.20;;;2.35;;
64597;SDS011;51004;54.692;9.332;2023-04-30T07:05:00;3.88;;;2.00;;
64597;SDS011;51004;54.692;9.332;2023-04-30T07:07:26;4.88;;;2.25;;
64597;SDS011;51004;54.692;9.332;2023-04-30T07:09:52;7.65;;;2.10;;
64597;SDS011;51004;54.692;9.332;2023-04-30T07:12:19;10.18;;;2.55;;
64597;SDS011;51004;54.692;9.332;2023-04-30T07:14:45;8.18;;;1.90;;
64597;SDS011;51004;54.692;9.332;2023-04-30T07:17:11;7.35;;;2.38;;
64597;SDS011;51004;54.692;9.332;2023-04-30T07:19:37;7.22;;;2.25;;
64597;SDS011;51004;54.692;9.332;2023-04-30T07:22:03;7.82;;;2.83;;
64597;SDS011;51004;54.692;9.332;2023-04-30T07:24:29;8.30;;;2.25;;
64597;SDS011;51004;54.692;9.332;2023-04-30T07:26:55;8.30;;;2.42;;
64597;SDS011;51004;54.692;9.332;2023-04-30T07:29:22;7.25;;;2.58;;
64597;SDS011;51004;54.692;9.332;2023-04-30T07:31:48;8.93;;;2.17;;
64597;SDS011;51004;54.692;9.332;2023-04-30T07:34:15;6.68;;;1.80;;
64597;SDS011;51004;54.692;9.332;2023-04-30T07:36:41;8.35;;;2.63;;
64597;SDS011;51004;54.692;9.332;2023-04-30T07:39:07;9.98;;;2.05;;
64597;SDS011;51004;54.692;9.332;2023-04-30T07:41:35;6.28;;;2.20;;
64597;SDS011;51004;54.692;9.332;2023-04-30T07:44:01;6.82;;;2.28;;
64597;SDS011;51004;54.692;9.332;2023-04-30T07:46:27;8.60;;;2.50;;
64597;SDS011;51004;54.692;9.332;2023-04-30T07:48:53;4.53;;;2.20;;
64597;SDS011;51004;54.692;9.332;2023-04-30T07:51:19;6.93;;;1.73;;
64597;SDS011;51004;54.692;9.332;2023-04-30T07:53:45;7.30;;;2.03;;
64597;SDS011;51004;54.692;9.332;2023-04-30T07:56:11;5.65;;;1.70;;
64597;SDS011;51004;54.692;9.332;2023-04-30T07:58:37;4.68;;;1.83;;
64597;SDS011;51004;54.692;9.332;2023-04-30T08:01:03;5.95;;;2.25;;
64597;SDS011;51004;54.692;9.332;2023-04-30T08:03:29;7.70;;;2.30;;
64597;SDS011;51004;54.692;9.332;2023-04-30T08:05:55;5.10;;;1.85;;
64597;SDS011;51004;54.692;9.332;2023-04-30T08:08:22;5.93;;;1.88;;
64597;SDS011;51004;54.692;9.332;2023-04-30T08:10:48;7.00;;;2.20;;
64597;SDS011;51004;54.692;9.332;2023-04-30T08:13:15;4.75;;;1.90;;
64597;SDS011;51004;54.692;9.332;2023-04-30T08:15:41;8.70;;;2.63;;
64597;SDS011;51004;54.692;9.332;2023-04-30T08:18:08;6.70;;;2.05;;
64597;SDS011;51004;54.692;9.332;2023-04-30T08:20:34;5.18;;;1.90;;
64597;SDS011;51004;54.692;9.332;2023-04-30T08:23:00;5.18;;;1.75;;
64597;SDS011;51004;54.692;9.332;2023-04-30T08:25:26;8.20;;;2.10;;
64597;SDS011;51004;54.692;9.332;2023-04-30T08:27:52;6.53;;;2.65;;
64597;SDS011;51004;54.692;9.332;2023-04-30T08:30:18;5.07;;;2.08;;
64597;SDS011;51004;54.692;9.332;2023-04-30T08:32:44;6.07;;;1.77;;
64597;SDS011;51004;54.692;9.332;2023-04-30T08:35:10;6.20;;;2.22;;
64597;SDS011;51004;54.692;9.332;2023-04-30T08:37:36;6.68;;;2.03;;
64597;SDS011;51004;54.692;9.332;2023-04-30T08:40:02;6.78;;;2.00;;
64597;SDS011;51004;54.692;9.332;2023-04-30T08:42:29;7.50;;;1.90;;
64597;SDS011;51004;54.692;9.332;2023-04-30T08:44:56;6.72;;;2.20;;
64597;SDS011;51004;54.692;9.332;2023-04-30T08:47:23;8.05;;;2.20;;
64597;SDS011;51004;54.692;9.332;2023-04-30T08:49:49;7.28;;;1.85;;
64597;SDS011;51004;54.692;9.332;2023-04-30T08:52:16;8.07;;;2.22;;
64597;SDS011;51004;54.692;9.332;2023-04-30T08:54:43;6.38;;;2.03;;
64597;SDS011;51004;54.692;9.332;2023-04-30T08:57:09;3.53;;;1.50;;
64597;SDS011;51004;54.692;9.332;2023-04-30T08:59:34;5.70;;;2.00;;
64597;SDS011;51004;54.692;9.332;2023-04-30T09:02:00;8.10;;;2.67;;
64597;SDS011;51004;54.692;9.332;2023-04-30T09:04:26;5.10;;;1.83;;
64597;SDS011;51004;54.692;9.332;2023-04-30T09:06:53;7.10;;;2.13;;
64597;SDS011;51004;54.692;9.332;2023-04-30T09:09:28;6.03;;;2.28;;
64597;SDS011;51004;54.692;9.332;2023-04-30T09:14:38;4.15;;;1.88;;
64597;SDS011;51004;54.692;9.332;2023-04-30T09:17:04;5.75;;;2.20;;
64597;SDS011;51004;54.692;9.332;2023-04-30T09:19:30;6.38;;;2.25;;
64597;SDS011;51004;54.692;9.332;2023-04-30T09:21:56;9.63;;;2.25;;
64597;SDS011;51004;54.692;9.332;2023-04-30T09:24:23;6.38;;;1.77;;
64597;SDS011;51004;54.692;9.332;2023-04-30T09:26:49;5.97;;;2.78;;
64597;SDS011;51004;54.692;9.332;2023-04-30T09:29:15;7.82;;;2.40;;
64597;SDS011;51004;54.692;9.332;2023-04-30T09:31:45;6.85;;;2.05;;
64597;SDS011;51004;54.692;9.332;2023-04-30T09:34:13;9.52;;;2.63;;
64597;SDS011;51004;54.692;9.332;2023-04-30T09:36:52;5.32;;;2.08;;
64597;SDS011;51004;54.692;9.332;2023-04-30T09:39:18;6.43;;;2.22;;
64597;SDS011;51004;54.692;9.332;2023-04-30T09:41:45;6.82;;;2.20;;
64597;SDS011;51004;54.692;9.332;2023-04-30T09:44:30;7.68;;;2.35;;
64597;SDS011;51004;54.692;9.332;2023-04-30T09:46:56;6.93;;;2.08;;
64597;SDS011;51004;54.692;9.332;2023-04-30T09:49:23;6.47;;;1.92;;
64597;SDS011;51004;54.692;9.332;2023-04-30T09:51:56;3.58;;;1.80;;
64597;SDS011;51004;54.692;9.332;2023-04-30T09:54:28;4.95;;;2.13;;
64597;SDS011;51004;54.692;9.332;2023-04-30T09:56:55;6.60;;;1.83;;
64597;SDS011;51004;54.692;9.332;2023-04-30T09:59:22;5.63;;;2.38;;
64597;SDS011;51004;54.692;9.332;2023-04-30T10:01:49;7.53;;;2.28;;
64597;SDS011;51004;54.692;9.332;2023-04-30T10:04:16;6.03;;;1.80;;
64597;SDS011;51004;54.692;9.332;2023-04-30T10:06:43;7.15;;;2.17;;
64597;SDS011;51004;54.692;9.332;2023-04-30T10:09:09;4.80;;;1.90;;
64597;SDS011;51004;54.692;9.332;2023-04-30T10:11:36;6.78;;;2.05;;
64597;SDS011;51004;54.692;9.332;2023-04-30T10:14:05;5.97;;;1.92;;
64597;SDS011;51004;54.692;9.332;2023-04-30T10:16:42;5.53;;;1.60;;
64597;SDS011;51004;54.692;9.332;2023-04-30T10:19:11;5.40;;;1.90;;
64597;SDS011;51004;54.692;9.332;2023-04-30T10:21:37;2.55;;;1.52;;
64597;SDS011;51004;54.692;9.332;2023-04-30T10:24:05;4.25;;;1.80;;
64597;SDS011;51004;54.692;9.332;2023-04-30T10:26:31;4.60;;;1.70;;
64597;SDS011;51004;54.692;9.332;2023-04-30T10:28:59;5.75;;;1.92;;
64597;SDS011;51004;54.692;9.332;2023-04-30T10:31:25;6.22;;;2.67;;
64597;SDS011;51004;54.692;9.332;2023-04-30T10:36:27;3.05;;;1.40;;
64597;SDS011;51004;54.692;9.332;2023-04-30T10:38:55;7.30;;;1.85;;
64597;SDS011;51004;54.692;9.332;2023-04-30T10:41:21;5.95;;;1.83;;
64597;SDS011;51004;54.692;9.332;2023-04-30T10:43:47;5.75;;;2.38;;
64597;SDS011;51004;54.692;9.332;2023-04-30T10:46:22;7.80;;;1.98;;
64597;SDS011;51004;54.692;9.332;2023-04-30T10:48:48;5.38;;;2.33;;
64597;SDS011;51004;54.692;9.332;2023-04-30T10:51:14;4.80;;;2.00;;
64597;SDS011;51004;54.692;9.332;2023-04-30T10:53:41;6.03;;;1.70;;
64597;SDS011;51004;54.692;9.332;2023-04-30T10:56:07;5.68;;;2.42;;
64597;SDS011;51004;54.692;9.332;2023-04-30T10:58:37;4.32;;;1.85;;
64597;SDS011;51004;54.692;9.332;2023-04-30T11:01:05;6.57;;;2.13;;
64597;SDS011;51004;54.692;9.332;2023-04-30T11:03:34;4.65;;;1.90;;
64597;SDS011;51004;54.692;9.332;2023-04-30T11:06:06;4.18;;;1.98;;
64597;SDS011;51004;54.692;9.332;2023-04-30T11:08:35;4.00;;;1.80;;
64597;SDS011;51004;54.692;9.332;2023-04-30T11:11:01;6.22;;;2.15;;
64597;SDS011;51004;54.692;9.332;2023-04-30T11:13:37;4.15;;;1.77;;
64597;SDS011;51004;54.692;9.332;2023-04-30T11:16:04;7.40;;;2.10;;
64597;SDS011;51004;54.692;9.332;2023-04-30T11:18:30;4.18;;;1.90;;
64597;SDS011;51004;54.692;9.332;2023-04-30T11:20:56;7.10;;;2.03;;
64597;SDS011;51004;54.692;9.332;2023-04-30T11:23:22;4.05;;;2.00;;
64597;SDS011;51004;54.692;9.332;2023-04-30T11:25:52;5.15;;;2.17;;
64597;SDS011;51004;54.692;9.332;2023-04-30T11:28:20;3.38;;;1.77;;
64597;SDS011;51004;54.692;9.332;2023-04-30T11:30:58;4.28;;;2.08;;
64597;SDS011;51004;54.692;9.332;2023-04-30T11:33:25;4.60;;;2.10;;
64597;SDS011;51004;54.692;9.332;2023-04-30T11:35:52;8.75;;;2.13;;
64597;SDS011;51004;54.692;9.332;2023-04-30T11:38:20;8.57;;;2.20;;
64597;SDS011;51004;54.692;9.332;2023-04-30T11:40:47;4.10;;;1.95;;
64597;SDS011;51004;54.692;9.332;2023-04-30T11:43:20;5.63;;;1.92;;
64597;SDS011;51004;54.692;9.332;2023-04-30T11:46:29;6.10;;;1.83;;
64597;SDS011;51004;54.692;9.332;2023-04-30T11:48:36;4.65;;;1.70;;
64597;SDS011;51004;54.692;9.332;2023-04-30T11:51:03;6.43;;;2.00;;
64597;SDS011;51004;54.692;9.332;2023-04-30T11:53:30;5.28;;;1.85;;
64597;SDS011;51004;54.692;9.332;2023-04-30T11:55:56;5.28;;;1.85;;
64597;SDS011;51004;54.692;9.332;2023-04-30T11:58:26;5.32;;;2.25;;
64597;SDS011;51004;54.692;9.332;2023-04-30T12:00:58;8.07;;;2.60;;
64597;SDS011;51004;54.692;9.332;2023-04-30T12:03:24;3.70;;;2.00;;
64597;SDS011;51004;54.692;9.332;2023-04-30T12:05:50;5.75;;;2.40;;
64597;SDS011;51004;54.692;9.332;2023-04-30T12:08:17;6.03;;;2.03;;
64597;SDS011;51004;54.692;9.332;2023-04-30T12:10:44;7.00;;;1.77;;
64597;SDS011;51004;54.692;9.332;2023-04-30T12:13:13;8.15;;;1.63;;
64597;SDS011;51004;54.692;9.332;2023-04-30T12:15:40;4.25;;;1.27;;
64597;SDS011;51004;54.692;9.332;2023-04-30T12:18:11;10.20;;;2.20;;
64597;SDS011;51004;54.692;9.332;2023-04-30T12:20:37;4.93;;;1.90;;
64597;SDS011;51004;54.692;9.332;2023-04-30T12:23:04;8.18;;;2.30;;
64597;SDS011;51004;54.692;9.332;2023-04-30T12:25:30;6.78;;;1.92;;
64597;SDS011;51004;54.692;9.332;2023-04-30T12:27:57;6.72;;;1.67;;
64597;SDS011;51004;54.692;9.332;2023-04-30T12:30:24;6.28;;;2.22;;
64597;SDS011;51004;54.692;9.332;2023-04-30T12:32:51;4.35;;;1.98;;
64597;SDS011;51004;54.692;9.332;2023-04-30T12:35:19;3.38;;;2.00;;
64597;SDS011;51004;54.692;9.332;2023-04-30T12:37:46;3.97;;;1.83;;
64597;SDS011;51004;54.692;9.332;2023-04-30T12:40:12;3.15;;;1.98;;
64597;SDS011;51004;54.692;9.332;2023-04-30T12:42:40;4.53;;;2.10;;
64597;SDS011;51004;54.692;9.332;2023-04-30T12:45:06;3.50;;;1.92;;
64597;SDS011;51004;54.692;9.332;2023-04-30T12:47:32;5.13;;;1.70;;
64597;SDS011;51004;54.692;9.332;2023-04-30T12:50:03;4.55;;;1.88;;
64597;SDS011;51004;54.692;9.332;2023-04-30T12:52:31;4.57;;;2.60;;
64597;SDS011;51004;54.692;9.332;2023-04-30T12:54:57;4.63;;;1.55;;
64597;SDS011;51004;54.692;9.332;2023-04-30T12:57:38;8.77;;;2.45;;
64597;SDS011;51004;54.692;9.332;2023-04-30T13:00:04;5.93;;;2.30;;
64597;SDS011;51004;54.692;9.332;2023-04-30T13:02:32;4.43;;;1.80;;
64597;SDS011;51004;54.692;9.332;2023-04-30T13:04:58;5.53;;;2.08;;
64597;SDS011;51004;54.692;9.332;2023-04-30T13:07:24;5.50;;;2.30;;
64597;SDS011;51004;54.692;9.332;2023-04-30T13:09:50;3.72;;;1.80;;
64597;SDS011;51004;54.692;9.332;2023-04-30T13:12:16;5.45;;;1.58;;
64597;SDS011;51004;54.692;9.332;2023-04-30T13:14:43;5.20;;;1.70;;
64597;SDS011;51004;54.692;9.332;2023-04-30T13:17:09;5.85;;;2.10;;
64597;SDS011;51004;54.692;9.332;2023-04-30T13:19:37;3.83;;;1.98;;
64597;SDS011;51004;54.692;9.332;2023-04-30T13:22:03;4.35;;;2.10;;
64597;SDS011;51004;54.692;9.332;2023-04-30T13:24:29;5.45;;;1.92;;
64597;SDS011;51004;54.692;9.332;2023-04-30T13:26:55;3.90;;;1.80;;
64597;SDS011;51004;54.692;9.332;2023-04-30T13:29:23;6.57;;;1.83;;
64597;SDS011;51004;54.692;9.332;2023-04-30T13:31:49;6.57;;;1.92;;
64597;SDS011;51004;54.692;9.332;2023-04-30T13:34:15;3.05;;;1.92;;
64597;SDS011;51004;54.692;9.332;2023-04-30T13:36:41;5.55;;;1.98;;
64597;SDS011;51004;54.692;9.332;2023-04-30T13:39:07;4.82;;;1.85;;
64597;SDS011;51004;54.692;9.332;2023-04-30T13:41:33;5.00;;;2.15;;
64597;SDS011;51004;54.692;9.332;2023-04-30T13:43:59;5.13;;;1.45;;
64597;SDS011;51004;54.692;9.332;2023-04-30T13:46:25;5.55;;;1.83;;
64597;SDS011;51004;54.692;9.332;2023-04-30T13:48:51;5.38;;;1.83;;
64597;SDS011;51004;54.692;9.332;2023-04-30T13:51:17;4.95;;;1.92;;
64597;SDS011;51004;54.692;9.332;2023-04-30T13:53:43;4.68;;;1.88;;
64597;SDS011;51004;54.692;9.332;2023-04-30T14:01:58;6.95;;;1.90;;
64597;SDS011;51004;54.692;9.332;2023-04-30T14:13:34;5.77;;;2.17;;
64597;SDS011;51004;54.692;9.332;2023-04-30T14:16:00;7.18;;;2.30;;
64597;SDS011;51004;54.692;9.332;2023-04-30T14:18:28;3.97;;;1.73;;
64597;SDS011;51004;54.692;9.332;2023-04-30T14:20:54;6.82;;;2.10;;
64597;SDS011;51004;54.692;9.332;2023-04-30T14:23:20;2.97;;;1.38;;
64597;SDS011;51004;54.692;9.332;2023-04-30T14:25:46;6.20;;;1.90;;
64597;SDS011;51004;54.692;9.332;2023-04-30T14:28:12;5.53;;;2.33;;
64597;SDS011;51004;54.692;9.332;2023-04-30T14:30:38;3.45;;;1.70;;
64597;SDS011;51004;54.692;9.332;2023-04-30T14:33:04;4.70;;;2.05;;
64597;SDS011;51004;54.692;9.332;2023-04-30T14:35:30;3.35;;;1.85;;
64597;SDS011;51004;54.692;9.332;2023-04-30T14:37:56;4.90;;;2.00;;
64597;SDS011;51004;54.692;9.332;2023-04-30T14:40:22;5.38;;;2.10;;
64597;SDS011;51004;54.692;9.332;2023-04-30T14:42:48;7.10;;;2.22;;
64597;SDS011;51004;54.692;9.332;2023-04-30T14:45:14;5.30;;;1.70;;
64597;SDS011;51004;54.692;9.332;2023-04-30T14:47:40;5.38;;;2.22;;
64597;SDS011;51004;54.692;9.332;2023-04-30T14:50:06;6.03;;;1.73;;
64597;SDS011;51004;54.692;9.332;2023-04-30T14:52:33;5.80;;;2.03;;
64597;SDS011;51004;54.692;9.332;2023-04-30T14:54:59;7.65;;;2.83;;
64597;SDS011;51004;54.692;9.332;2023-04-30T14:57:25;7.00;;;3.60;;
64597;SDS011;51004;54.692;9.332;2023-04-30T14:59:51;3.35;;;2.20;;
64597;SDS011;51004;54.692;9.332;2023-04-30T15:02:21;5.72;;;2.53;;
64597;SDS011;51004;54.692;9.332;2023-04-30T15:04:47;7.95;;;2.67;;
64597;SDS011;51004;54.692;9.332;2023-04-30T15:07:13;6.00;;;2.88;;
64597;SDS011;51004;54.692;9.332;2023-04-30T15:09:39;5.00;;;1.83;;
64597;SDS011;51004;54.692;9.332;2023-04-30T15:12:05;7.13;;;2.67;;
64597;SDS011;51004;54.692;9.332;2023-04-30T15:14:31;6.10;;;2.03;;
64597;SDS011;51004;54.692;9.332;2023-04-30T15:16:57;4.35;;;1.67;;
64597;SDS011;51004;54.692;9.332;2023-04-30T15:19:23;4.60;;;1.77;;